Overview Statistics Trail Chart Weather Telemetry Raw packets
 

This is the latest recevied weather packets stored in our database for station/object WMKD. If no packets are shown the sender has not sent any weather packets the latest 10 day(s).

<< 1 2 3 4 5 >>
Time Temp. Humidity Pressure Rain* Wind** Luminosity Snow
1778044193 32.78° C 59% 1008 hPa - - - -
1778040593 31.67° C 66% 1008 hPa - - - -
1778036996 30.56° C 70% 1009 hPa - - - -
1778033393 30.56° C 74% 1009 hPa - - - -
1778029794 27.78° C 83% 1008 hPa - - - -
1778026193 25.56° C 88% 1008 hPa - - - -
1778023189 25° C 94% 1007 hPa - - - -
1778022593 25° C 94% 1007 hPa - - - -
1778018996 25° C 94% 1007 hPa - - - -
1778015393 25° C 94% 1007 hPa - - - -
1778011792 25.56° C 88% 1007 hPa - - - -
1778008193 25.56° C 88% 1007 hPa - - - -
1778004596 25.56° C 94% 1008 hPa - - - -
1778000992 26.67° C 88% 1009 hPa - - - -
1777997393 26.67° C 88% 1008 hPa - - - -
1777994992 26.67° C 88% 1008 hPa - - - -
1777994430 27.22° C 80% 1010.5 hPa - - - -
1777993792 26.67° C 88% 1008 hPa - - - -
1777990192 27.78° C 83% 1008 hPa - - - -
1777986599 27.78° C 88% 1007 hPa - - - -
1777982992 30° C 74% 1006 hPa - - - -
1777979393 30.56° C 70% 1006 hPa - - - -
1777975792 31.67° C 66% 1005 hPa - - - -
1777972195 32.78° C 62% 1005 hPa - - - -
1777968591 33.89° C 59% 1005 hPa - - - -

* Rain since midnight (hover to see other rain measurements)
** Current wind speed in m/s (hover to see current wind gust speed)